Darstellungsparameter: Aktuell verwendete Einstellungen:
Skalierung der Graphiken ... ?
xyx+y,   Skalierungsfaktor:      Skalierung: Modus: x, Faktor: 1
Darstellungszeitraum ... ?
Vom - - bis: - -   Zeitraum: 30.05.2019 - 01.06.2019
Min/Max/Avg-Anzeige ... ?
Zeige MMA aktuell
Zeige MMA Monat
Zeige MMA alles
Zeige --A aktuell
Zeige --A Monat
Zeige --A alles
Keine MMA-Anzeige
MMA:
Average (ber die Originaldaten)
MMA-Basis: 30.05.2019 - 01.06.2019
Quicknavigation für Darstellung... ?
Tage:      1T, 2T, 3T, 5T -1T -2T -3T -5T +1T +2T +3T +5T
Wochen: 1W, 2W, 3W -1W -2W -3W +1W +2W +3W
Monate: 1M, 3M, 6M -1M -3M -6M +1M +3M +6M
Jahre:    1J, 3J, 5J, 10J -1J -3J -5J -10J +1J +3J +5J +10J
Nutze für die Darstellung ... ?
Originaldaten oder Mittelwerte auf ...
Stundenbasis Tagesbasis Wochenbasis
Monatsbasis Jahresbasis      Datenbasis: Original-Daten
Darstellen als:
Statistik (Auto) Statistik J:M      Darstellung:
Zur Graphik,    zurück zur Übersicht aller Sensoren.
 
Tabellarische Datenbersicht: ?
 
Sensor: Nr:Datum:Temp:Abs-Feuchte:Windchill:Wind:
Aussen-T/F 1 30-05-2019 00:00:00 12.4 C 8.63 g/m*3 12.4 C 0 km/h
2 30-05-2019 00:05:00 12.3 C 8.69 g/m*3 12.3 C 0 km/h
3 30-05-2019 00:10:00 12.3 C 8.69 g/m*3 12.3 C 0 km/h
4 30-05-2019 00:15:00 12.2 C 8.63 g/m*3 12.2 C 0 km/h
5 30-05-2019 00:20:00 12.1 C 8.69 g/m*3 12.1 C 0 km/h
6 30-05-2019 00:25:00 12.1 C 8.69 g/m*3 12.1 C 0 km/h
7 30-05-2019 00:30:00 12 C 8.74 g/m*3 12 C 0 km/h
8 30-05-2019 00:35:00 11.9 C 8.68 g/m*3 11.9 C 0 km/h
9 30-05-2019 00:40:00 11.9 C 8.68 g/m*3 11.9 C 0 km/h
10 30-05-2019 00:45:00 11.9 C 8.79 g/m*3 11.9 C 0 km/h
11 30-05-2019 00:50:00 11.8 C 8.63 g/m*3 11.8 C 0 km/h
12 30-05-2019 00:55:00 11.8 C 8.74 g/m*3 11.8 C 0 km/h
13 30-05-2019 01:00:00 11.8 C 8.74 g/m*3 11.8 C 0 km/h
14 30-05-2019 01:05:00 11.7 C 8.79 g/m*3 11.7 C 0 km/h
15 30-05-2019 01:10:00 11.6 C 8.73 g/m*3 11.6 C 0 km/h
16 30-05-2019 01:15:00 11.6 C 8.73 g/m*3 11.6 C 0 km/h
17 30-05-2019 01:20:00 11.5 C 8.68 g/m*3 11.5 C 0 km/h
18 30-05-2019 01:25:00 11.4 C 8.62 g/m*3 11.4 C 0 km/h
19 30-05-2019 01:30:00 11.4 C 8.72 g/m*3 11.4 C 0 km/h
20 30-05-2019 01:35:00 11.3 C 8.57 g/m*3 11.3 C 0 km/h
21 30-05-2019 01:40:00 11.3 C 8.67 g/m*3 11.3 C 0 km/h
22 30-05-2019 01:45:00 11.3 C 8.67 g/m*3 11.3 C 0 km/h
23 30-05-2019 01:50:00 11.2 C 8.62 g/m*3 11.2 C 0 km/h
24 30-05-2019 01:55:00 11.2 C 8.72 g/m*3 11.2 C 0 km/h
25 30-05-2019 02:00:00 11.2 C 8.62 g/m*3 11.2 C 0 km/h
Sensor: Nr:Datum:Temp:Abs-Feuchte:Windchill:Wind:
Aussen-T/F 26 30-05-2019 02:05:00 11.1 C 8.66 g/m*3 11.1 C 3.2 km/h
27 30-05-2019 02:10:00 11.1 C 8.66 g/m*3 11.1 C 3.2 km/h
28 30-05-2019 02:15:00 11 C 8.61 g/m*3 11 C 0 km/h
29 30-05-2019 02:20:00 10.9 C 8.55 g/m*3 10.9 C 0 km/h
30 30-05-2019 02:25:00 10.9 C 8.55 g/m*3 10.9 C 1.6 km/h
31 30-05-2019 02:30:00 10.9 C 8.55 g/m*3 10.9 C 0 km/h
32 30-05-2019 02:35:00 10.8 C 8.5 g/m*3 10.8 C 0 km/h
33 30-05-2019 02:40:00 10.8 C 8.5 g/m*3 10.8 C 0 km/h
34 30-05-2019 02:45:00 10.7 C 8.55 g/m*3 10.7 C 0 km/h
35 30-05-2019 02:50:00 10.7 C 8.55 g/m*3 10.7 C 0 km/h
36 30-05-2019 02:55:00 10.5 C 8.44 g/m*3 10.5 C 0 km/h
37 30-05-2019 03:00:00 10.4 C 8.38 g/m*3 10.4 C 0 km/h
38 30-05-2019 03:05:00 10.3 C 8.33 g/m*3 10.3 C 0 km/h
39 30-05-2019 03:10:00 10.2 C 8.37 g/m*3 10.2 C 0 km/h
40 30-05-2019 03:15:00 10.1 C 8.32 g/m*3 10.1 C 0 km/h
41 30-05-2019 03:20:00 10.1 C 8.32 g/m*3 10.1 C 0 km/h
42 30-05-2019 03:25:00 9.9 C 8.22 g/m*3 9.9 C 0 km/h
43 30-05-2019 03:30:00 9.8 C 8.26 g/m*3 9.8 C 0 km/h
44 30-05-2019 03:35:00 9.8 C 8.26 g/m*3 9.8 C 0 km/h
45 30-05-2019 03:40:00 9.7 C 8.2 g/m*3 9.7 C 0 km/h
46 30-05-2019 03:45:00 9.7 C 8.3 g/m*3 9.7 C 0 km/h
47 30-05-2019 03:50:00 9.7 C 8.3 g/m*3 9.7 C 0 km/h
48 30-05-2019 03:55:00 9.7 C 8.3 g/m*3 9.7 C 0 km/h
49 30-05-2019 04:00:00 9.7 C 8.3 g/m*3 9.7 C 0 km/h
50 30-05-2019 04:05:00 9.7 C 8.3 g/m*3 9.7 C 0 km/h
Sensor: Nr:Datum:Temp:Abs-Feuchte:Windchill:Wind:
Aussen-T/F 51 30-05-2019 04:10:00 9.7 C 8.3 g/m*3 9.7 C 0 km/h
52 30-05-2019 04:15:00 9.7 C 8.3 g/m*3 9.7 C 0 km/h
53 30-05-2019 04:20:00 9.7 C 8.39 g/m*3 9.7 C 0 km/h
54 30-05-2019 04:25:00 9.7 C 8.3 g/m*3 9.7 C 0 km/h
55 30-05-2019 04:30:00 9.6 C 8.34 g/m*3 9.6 C 0 km/h
56 30-05-2019 04:35:00 9.6 C 8.34 g/m*3 9.6 C 0 km/h
57 30-05-2019 04:40:00 9.4 C 8.23 g/m*3 9.4 C 0 km/h
58 30-05-2019 04:45:00 9.4 C 8.23 g/m*3 9.4 C 0 km/h
59 30-05-2019 04:50:00 9.3 C 8.18 g/m*3 9.3 C 0 km/h
60 30-05-2019 04:55:00 9.3 C 8.18 g/m*3 9.3 C 0 km/h
61 30-05-2019 05:00:00 9.2 C 8.13 g/m*3 9.2 C 0 km/h
62 30-05-2019 05:05:00 9.2 C 8.13 g/m*3 9.2 C 0 km/h
63 30-05-2019 05:10:00 9.1 C 8.16 g/m*3 9.1 C 0 km/h
64 30-05-2019 05:15:00 9.1 C 8.16 g/m*3 9.1 C 0 km/h
65 30-05-2019 05:20:00 9.1 C 8.16 g/m*3 9.1 C 0 km/h
66 30-05-2019 05:25:00 9 C 8.11 g/m*3 9 C 0 km/h
67 30-05-2019 05:30:00 9 C 8.11 g/m*3 9 C 0 km/h
68 30-05-2019 05:35:00 9.1 C 8.16 g/m*3 9.1 C 0 km/h
69 30-05-2019 05:40:00 9.1 C 8.16 g/m*3 9.1 C 0 km/h
70 30-05-2019 05:45:00 9.1 C 8.16 g/m*3 9.1 C 0 km/h
71 30-05-2019 05:50:00 9.1 C 8.25 g/m*3 9.1 C 0 km/h
72 30-05-2019 05:55:00 9.1 C 8.25 g/m*3 9.1 C 0 km/h
73 30-05-2019 06:00:00 9.2 C 8.3 g/m*3 9.2 C 0 km/h
74 30-05-2019 06:05:00 9.2 C 8.3 g/m*3 9.2 C 0 km/h
75 30-05-2019 06:10:00 9.3 C 8.36 g/m*3 9.3 C 1.6 km/h
Sensor: Nr:Datum:Temp:Abs-Feuchte:Windchill:Wind:
Aussen-T/F 76 30-05-2019 06:15:00 9.4 C 8.5 g/m*3 9.4 C 0 km/h
77 30-05-2019 06:20:00 9.6 C 8.52 g/m*3 9.6 C 0 km/h
78 30-05-2019 06:25:00 9.7 C 8.57 g/m*3 9.7 C 0 km/h
79 30-05-2019 06:30:00 9.8 C 8.72 g/m*3 9.8 C 0 km/h
80 30-05-2019 06:35:00 9.8 C 8.72 g/m*3 9.8 C 0 km/h
81 30-05-2019 06:40:00 10 C 8.83 g/m*3 10 C 0 km/h
82 30-05-2019 06:45:00 10.1 C 8.89 g/m*3 10.1 C 0 km/h
83 30-05-2019 06:50:00 10.2 C 8.95 g/m*3 10.2 C 0 km/h
84 30-05-2019 06:55:00 10.3 C 8.91 g/m*3 10.3 C 0 km/h
85 30-05-2019 07:00:00 10.3 C 8.91 g/m*3 10.3 C 0 km/h
86 30-05-2019 07:05:00 10.4 C 8.96 g/m*3 10.4 C 0 km/h
87 30-05-2019 07:10:00 10.5 C 9.02 g/m*3 10.5 C 0 km/h
88 30-05-2019 07:15:00 10.6 C 9.08 g/m*3 10.6 C 0 km/h
89 30-05-2019 07:20:00 10.7 C 9.13 g/m*3 10.7 C 0 km/h
90 30-05-2019 07:25:00 10.8 C 9.09 g/m*3 10.8 C 0 km/h
91 30-05-2019 07:30:00 10.9 C 9.15 g/m*3 10.9 C 0 km/h
92 30-05-2019 07:35:00 11.1 C 9.27 g/m*3 11.1 C 0 km/h
93 30-05-2019 07:40:00 11.2 C 9.12 g/m*3 11.2 C 3.2 km/h
94 30-05-2019 07:45:00 11.3 C 9.08 g/m*3 11.3 C 6.4 km/h
95 30-05-2019 07:50:00 11.6 C 9.25 g/m*3 11.6 C 4.8 km/h
96 30-05-2019 07:55:00 11.7 C 9.2 g/m*3 11.7 C 3.2 km/h
97 30-05-2019 08:00:00 11.8 C 9.26 g/m*3 11.8 C 6.4 km/h
98 30-05-2019 08:05:00 11.8 C 9.16 g/m*3 11.8 C 8.1 km/h
99 30-05-2019 08:10:00 11.9 C 9.21 g/m*3 11.9 C 3.2 km/h
100 30-05-2019 08:15:00 12 C 9.27 g/m*3 12 C 0 km/h
Sensor: Nr:Datum:Temp:Abs-Feuchte:Windchill:Wind:
Aussen-T/F 101 30-05-2019 08:20:00 12.2 C 9.39 g/m*3 12.2 C 1.6 km/h
102 30-05-2019 08:25:00 12.3 C 9.56 g/m*3 12.3 C 1.6 km/h
103 30-05-2019 08:30:00 12.4 C 9.4 g/m*3 12.4 C 1.6 km/h
104 30-05-2019 08:35:00 12.6 C 9.51 g/m*3 12.6 C 3.2 km/h
105 30-05-2019 08:40:00 12.7 C 9.46 g/m*3 12.7 C 1.6 km/h
106 30-05-2019 08:45:00 12.8 C 9.41 g/m*3 12.8 C 4.8 km/h
107 30-05-2019 08:50:00 12.9 C 9.47 g/m*3 12.9 C 3.2 km/h
108 30-05-2019 08:55:00 13.1 C 9.36 g/m*3 13.1 C 3.2 km/h
109 30-05-2019 09:00:00 13.3 C 9.59 g/m*3 13.3 C 3.2 km/h
110 30-05-2019 09:05:00 13.4 C 9.53 g/m*3 13.4 C 3.2 km/h
111 30-05-2019 09:10:00 13.6 C 9.65 g/m*3 13.6 C 3.2 km/h
112 30-05-2019 09:15:00 13.7 C 9.71 g/m*3 13.7 C 3.2 km/h
113 30-05-2019 09:20:00 13.8 C 9.65 g/m*3 13.8 C 1.6 km/h
114 30-05-2019 09:25:00 13.9 C 9.71 g/m*3 13.9 C 0 km/h
115 30-05-2019 09:30:00 14.2 C 10.14 g/m*3 14.2 C 3.2 km/h
116 30-05-2019 09:35:00 14.4 C 10.14 g/m*3 14.4 C 0 km/h
117 30-05-2019 09:40:00 14.6 C 10.14 g/m*3 14.6 C 0 km/h
118 30-05-2019 09:45:00 14.7 C 10.2 g/m*3 14.7 C 0 km/h
119 30-05-2019 09:50:00 14.8 C 10.01 g/m*3 14.8 C 4.8 km/h
120 30-05-2019 09:55:00 14.9 C 10.2 g/m*3 14.9 C 3.2 km/h
121 30-05-2019 10:00:00 15.1 C 10.32 g/m*3 15.1 C 4.8 km/h
122 30-05-2019 10:05:00 15.2 C 10.25 g/m*3 15.2 C 4.8 km/h
123 30-05-2019 10:10:00 15.3 C 10.32 g/m*3 15.3 C 1.6 km/h
124 30-05-2019 10:15:00 15.6 C 10.37 g/m*3 15.6 C 1.6 km/h
125 30-05-2019 10:20:00 15.7 C 10.3 g/m*3 15.7 C 4.8 km/h
Sensor: Nr:Datum:Temp:Abs-Feuchte:Windchill:Wind:
Aussen-T/F 126 30-05-2019 10:25:00 15.9 C 10.43 g/m*3 15.9 C 3.2 km/h
127 30-05-2019 10:30:00 16 C 10.63 g/m*3 16 C 4.8 km/h
128 30-05-2019 10:35:00 16.2 C 10.48 g/m*3 16.2 C 3.2 km/h
129 30-05-2019 10:40:00 16.5 C 10.39 g/m*3 16.5 C 1.6 km/h
130 30-05-2019 10:45:00 16.8 C 10.72 g/m*3 16.8 C 4.8 km/h
131 30-05-2019 10:50:00 17.2 C 10.54 g/m*3 17.2 C 4.8 km/h
132 30-05-2019 10:55:00 17.6 C 10.5 g/m*3 17.6 C 8.1 km/h
133 30-05-2019 11:00:00 17.8 C 10.17 g/m*3 17.8 C 8.1 km/h
134 30-05-2019 11:05:00 18 C 10.29 g/m*3 18 C 12.9 km/h
135 30-05-2019 11:10:00 18.1 C 10.04 g/m*3 18.1 C 12.9 km/h
136 30-05-2019 11:15:00 18.1 C 10.04 g/m*3 18.1 C 12.9 km/h
137 30-05-2019 11:20:00 18.2 C 10.41 g/m*3 18.2 C 11.3 km/h
138 30-05-2019 11:25:00 18.3 C 10.16 g/m*3 18.3 C 11.3 km/h
139 30-05-2019 11:30:00 18.3 C 10.16 g/m*3 18.3 C 9.7 km/h
140 30-05-2019 11:35:00 18.3 C 10.01 g/m*3 18.3 C 11.3 km/h
141 30-05-2019 11:40:00 18.3 C 10.01 g/m*3 18.3 C 9.7 km/h
142 30-05-2019 11:45:00 18.3 C 10.32 g/m*3 18.3 C 8.1 km/h
143 30-05-2019 11:50:00 18.3 C 10.32 g/m*3 18.3 C 9.7 km/h
144 30-05-2019 11:55:00 18.2 C 9.95 g/m*3 18.2 C 9.7 km/h
145 30-05-2019 12:00:00 18.2 C 10.1 g/m*3 18.2 C 8.1 km/h
146 30-05-2019 12:05:00 18.2 C 10.26 g/m*3 18.2 C 8.1 km/h
147 30-05-2019 12:10:00 18.2 C 9.95 g/m*3 18.2 C 8.1 km/h
148 30-05-2019 12:15:00 18.2 C 9.95 g/m*3 18.2 C 9.7 km/h
149 30-05-2019 12:20:00 18.2 C 10.1 g/m*3 18.2 C 9.7 km/h
150 30-05-2019 12:25:00 18.1 C 10.04 g/m*3 18.1 C 8.1 km/h
Sensor: Nr:Datum:Temp:Abs-Feuchte:Windchill:Wind:
Aussen-T/F 151 30-05-2019 12:30:00 18.1 C 10.2 g/m*3 18.1 C 4.8 km/h
152 30-05-2019 12:35:00 18.1 C 10.2 g/m*3 18.1 C 4.8 km/h
153 30-05-2019 12:40:00 18.2 C 10.26 g/m*3 18.2 C 6.4 km/h
154 30-05-2019 12:45:00 18.2 C 10.26 g/m*3 18.2 C 4.8 km/h
155 30-05-2019 12:50:00 18.3 C 10.48 g/m*3 18.3 C 6.4 km/h
156 30-05-2019 12:55:00 18.4 C 10.38 g/m*3 18.4 C 4.8 km/h
157 30-05-2019 13:00:00 18.4 C 10.22 g/m*3 18.4 C 4.8 km/h
158 30-05-2019 13:05:00 18.4 C 10.54 g/m*3 18.4 C 4.8 km/h
159 30-05-2019 13:10:00 18.3 C 10.79 g/m*3 18.3 C 0 km/h
160 30-05-2019 13:15:00 18.3 C 11.1 g/m*3 18.3 C 1.6 km/h
161 30-05-2019 13:20:00 18.2 C 11.04 g/m*3 18.2 C 0 km/h
162 30-05-2019 13:25:00 18.1 C 10.51 g/m*3 18.1 C 6.4 km/h
163 30-05-2019 13:30:00 18.1 C 11.12 g/m*3 18.1 C 1.6 km/h
164 30-05-2019 13:35:00 18.1 C 11.28 g/m*3 18.1 C 1.6 km/h
165 30-05-2019 13:40:00 18.2 C 11.04 g/m*3 18.2 C 1.6 km/h
166 30-05-2019 13:45:00 18.2 C 11.19 g/m*3 18.2 C 4.8 km/h
167 30-05-2019 13:50:00 18.2 C 10.88 g/m*3 18.2 C 3.2 km/h
168 30-05-2019 13:55:00 18.3 C 11.26 g/m*3 18.3 C 3.2 km/h
169 30-05-2019 14:00:00 18.4 C 10.85 g/m*3 18.4 C 0 km/h
170 30-05-2019 14:05:00 18.6 C 10.82 g/m*3 18.6 C 12.9 km/h
171 30-05-2019 14:10:00 18.9 C 10.69 g/m*3 18.9 C 3.2 km/h
172 30-05-2019 14:15:00 19.2 C 11.21 g/m*3 19.2 C 8.1 km/h
173 30-05-2019 14:20:00 19.4 C 11.18 g/m*3 19.4 C 8.1 km/h
174 30-05-2019 14:25:00 19.6 C 11.65 g/m*3 19.6 C 12.9 km/h
175 30-05-2019 14:30:00 19.7 C 11.55 g/m*3 19.7 C 11.3 km/h
Sensor: Nr:Datum:Temp:Abs-Feuchte:Windchill:Wind:
Aussen-T/F 176 30-05-2019 14:35:00 19.8 C 11.44 g/m*3 19.8 C 9.7 km/h
177 30-05-2019 14:40:00 19.8 C 11.27 g/m*3 19.8 C 11.3 km/h
178 30-05-2019 14:45:00 19.9 C 11.51 g/m*3 19.9 C 16.1 km/h
179 30-05-2019 14:50:00 19.9 C 11.17 g/m*3 19.9 C 17.7 km/h
180 30-05-2019 14:55:00 19.9 C 11.34 g/m*3 19.9 C 12.9 km/h
181 30-05-2019 15:00:00 19.9 C 11.51 g/m*3 19.9 C 9.7 km/h
182 30-05-2019 15:05:00 19.9 C 11.34 g/m*3 19.9 C 12.9 km/h
183 30-05-2019 15:10:00 19.9 C 11.68 g/m*3 19.9 C 11.3 km/h
184 30-05-2019 15:15:00 20.3 C 11.78 g/m*3 20.3 C 16.1 km/h
185 30-05-2019 15:20:00 20.8 C 11.95 g/m*3 20.8 C 16.1 km/h
186 30-05-2019 15:25:00 21.3 C 11.93 g/m*3 21.3 C 17.7 km/h
187 30-05-2019 15:30:00 21.7 C 12.21 g/m*3 21.7 C 17.7 km/h
188 30-05-2019 15:35:00 21.8 C 12.09 g/m*3 21.8 C 16.1 km/h
189 30-05-2019 15:40:00 22 C 12.03 g/m*3 22 C 22.5 km/h
190 30-05-2019 15:45:00 22.1 C 12.1 g/m*3 22.1 C 16.1 km/h
191 30-05-2019 15:50:00 22.2 C 12.17 g/m*3 22.2 C 17.7 km/h
192 30-05-2019 15:55:00 22.2 C 11.98 g/m*3 22.2 C 16.1 km/h
193 30-05-2019 16:00:00 22.2 C 12.37 g/m*3 22.2 C 16.1 km/h
194 30-05-2019 16:05:00 22.6 C 12.25 g/m*3 22.6 C 17.7 km/h
195 30-05-2019 16:10:00 22.8 C 11.99 g/m*3 22.8 C 16.1 km/h
196 30-05-2019 16:15:00 22.5 C 12.38 g/m*3 22.5 C 11.3 km/h
197 30-05-2019 16:20:00 22.3 C 12.05 g/m*3 22.3 C 12.9 km/h
198 30-05-2019 16:25:00 22.1 C 12.1 g/m*3 22.1 C 16.1 km/h
199 30-05-2019 16:30:00 21.8 C 12.09 g/m*3 21.8 C 14.5 km/h
200 30-05-2019 16:35:00 21.7 C 12.21 g/m*3 21.7 C 11.3 km/h
Sensor: Nr:Datum:Temp:Abs-Feuchte:Windchill:Wind:
Aussen-T/F 201 30-05-2019 16:40:00 21.5 C 12.26 g/m*3 21.5 C 12.9 km/h
202 30-05-2019 16:45:00 21.4 C 12 g/m*3 21.4 C 14.5 km/h
203 30-05-2019 16:50:00 21.3 C 12.12 g/m*3 21.3 C 11.3 km/h
204 30-05-2019 16:55:00 21.3 C 12.3 g/m*3 21.3 C 16.1 km/h
205 30-05-2019 17:00:00 21.3 C 12.3 g/m*3 21.3 C 16.1 km/h
206 30-05-2019 17:05:00 21.6 C 12.33 g/m*3 21.6 C 14.5 km/h
207 30-05-2019 17:10:00 21.7 C 12.4 g/m*3 21.7 C 11.3 km/h
208 30-05-2019 17:15:00 21.7 C 12.21 g/m*3 21.7 C 19.3 km/h
209 30-05-2019 17:20:00 21.6 C 12.33 g/m*3 21.6 C 14.5 km/h
210 30-05-2019 17:25:00 21.4 C 12.19 g/m*3 21.4 C 12.9 km/h
211 30-05-2019 17:30:00 21.7 C 12.4 g/m*3 21.7 C 11.3 km/h
212 30-05-2019 17:35:00 21.8 C 12.28 g/m*3 21.8 C 12.9 km/h
213 30-05-2019 17:40:00 21.8 C 12.47 g/m*3 21.8 C 11.3 km/h
214 30-05-2019 17:45:00 21.9 C 12.35 g/m*3 21.9 C 11.3 km/h
215 30-05-2019 17:50:00 21.7 C 12.21 g/m*3 21.7 C 16.1 km/h
216 30-05-2019 17:55:00 21.3 C 12.12 g/m*3 21.3 C 12.9 km/h
217 30-05-2019 18:00:00 21.1 C 12.34 g/m*3 21.1 C 9.7 km/h
218 30-05-2019 18:05:00 20.8 C 12.13 g/m*3 20.8 C 11.3 km/h
219 30-05-2019 18:10:00 20.7 C 12.24 g/m*3 20.7 C 11.3 km/h
220 30-05-2019 18:15:00 20.6 C 12.35 g/m*3 20.6 C 8.1 km/h
221 30-05-2019 18:20:00 20.6 C 12.35 g/m*3 20.6 C 9.7 km/h
222 30-05-2019 18:25:00 20.5 C 12.46 g/m*3 20.5 C 8.1 km/h
223 30-05-2019 18:30:00 20.5 C 12.28 g/m*3 20.5 C 6.4 km/h
224 30-05-2019 18:35:00 20.9 C 12.38 g/m*3 20.9 C 14.5 km/h
225 30-05-2019 18:40:00 21.6 C 12.71 g/m*3 21.6 C 12.9 km/h
Sensor: Nr:Datum:Temp:Abs-Feuchte:Windchill:Wind:
Aussen-T/F 226 30-05-2019 18:45:00 21.7 C 12.59 g/m*3 21.7 C 11.3 km/h
227 30-05-2019 18:50:00 21.4 C 12.56 g/m*3 21.4 C 9.7 km/h
228 30-05-2019 18:55:00 21.1 C 12.34 g/m*3 21.1 C 14.5 km/h
229 30-05-2019 19:00:00 20.8 C 12.49 g/m*3 20.8 C 8.1 km/h
230 30-05-2019 19:05:00 20.6 C 12.53 g/m*3 20.6 C 3.2 km/h
231 30-05-2019 19:10:00 20.4 C 12.56 g/m*3 20.4 C 6.4 km/h
232 30-05-2019 19:15:00 20.3 C 12.31 g/m*3 20.3 C 8.1 km/h
233 30-05-2019 19:20:00 20.2 C 12.76 g/m*3 20.2 C 1.6 km/h
234 30-05-2019 19:25:00 19.9 C 12.2 g/m*3 19.9 C 11.3 km/h
235 30-05-2019 19:30:00 19.8 C 12.47 g/m*3 19.8 C 3.2 km/h
236 30-05-2019 19:35:00 19.7 C 12.4 g/m*3 19.7 C 8.1 km/h
237 30-05-2019 19:40:00 19.6 C 12.32 g/m*3 19.6 C 11.3 km/h
238 30-05-2019 19:45:00 19.4 C 12.18 g/m*3 19.4 C 6.4 km/h
239 30-05-2019 19:50:00 19.3 C 12.11 g/m*3 19.3 C 6.4 km/h
240 30-05-2019 19:55:00 19.4 C 12.51 g/m*3 19.4 C 0 km/h
241 30-05-2019 20:00:00 19.3 C 12.44 g/m*3 19.3 C 0 km/h
242 30-05-2019 20:05:00 19.3 C 12.61 g/m*3 19.3 C 0 km/h
243 30-05-2019 20:10:00 19.3 C 12.61 g/m*3 19.3 C 0 km/h
244 30-05-2019 20:15:00 19.2 C 12.37 g/m*3 19.2 C 6.4 km/h
245 30-05-2019 20:20:00 19.2 C 12.7 g/m*3 19.2 C 0 km/h
246 30-05-2019 20:25:00 19.1 C 12.62 g/m*3 19.1 C 0 km/h
247 30-05-2019 20:30:00 18.9 C 12.47 g/m*3 18.9 C 3.2 km/h
248 30-05-2019 20:35:00 18.8 C 12.56 g/m*3 18.8 C 3.2 km/h
249 30-05-2019 20:40:00 18.7 C 12.33 g/m*3 18.7 C 0 km/h
250 30-05-2019 20:45:00 18.6 C 12.57 g/m*3 18.6 C 0 km/h
Sensor: Nr:Datum:Temp:Abs-Feuchte:Windchill:Wind:
Aussen-T/F 251 30-05-2019 20:50:00 18.5 C 12.66 g/m*3 18.5 C 0 km/h
252 30-05-2019 20:55:00 18.4 C 12.43 g/m*3 18.4 C 0 km/h
253 30-05-2019 21:00:00 18.3 C 12.51 g/m*3 18.3 C 0 km/h
254 30-05-2019 21:05:00 18.2 C 12.59 g/m*3 18.2 C 0 km/h
255 30-05-2019 21:10:00 18.1 C 12.36 g/m*3 18.1 C 0 km/h
256 30-05-2019 21:15:00 18 C 12.44 g/m*3 18 C 0 km/h
257 30-05-2019 21:20:00 17.8 C 12.29 g/m*3 17.8 C 0 km/h
258 30-05-2019 21:25:00 17.7 C 12.22 g/m*3 17.7 C 0 km/h
259 30-05-2019 21:30:00 17.6 C 12.3 g/m*3 17.6 C 0 km/h
260 30-05-2019 21:35:00 17.5 C 12.37 g/m*3 17.5 C 0 km/h
261 30-05-2019 21:40:00 17.3 C 12.23 g/m*3 17.3 C 0 km/h
262 30-05-2019 21:45:00 17.3 C 12.23 g/m*3 17.3 C 1.6 km/h
263 30-05-2019 21:50:00 17.2 C 12.15 g/m*3 17.2 C 0 km/h
264 30-05-2019 21:55:00 17.1 C 12.23 g/m*3 17.1 C 0 km/h
265 30-05-2019 22:00:00 17 C 12.15 g/m*3 17 C 0 km/h
266 30-05-2019 22:05:00 16.9 C 12.08 g/m*3 16.9 C 0 km/h
267 30-05-2019 22:10:00 16.8 C 12.15 g/m*3 16.8 C 0 km/h
268 30-05-2019 22:15:00 16.7 C 12.08 g/m*3 16.7 C 0 km/h
269 30-05-2019 22:20:00 16.7 C 12.08 g/m*3 16.7 C 0 km/h
270 30-05-2019 22:25:00 16.6 C 12.15 g/m*3 16.6 C 0 km/h
271 30-05-2019 22:30:00 16.5 C 12.08 g/m*3 16.5 C 0 km/h
272 30-05-2019 22:35:00 16.4 C 12 g/m*3 16.4 C 0 km/h
273 30-05-2019 22:40:00 16.3 C 11.93 g/m*3 16.3 C 0 km/h
274 30-05-2019 22:45:00 16.2 C 12 g/m*3 16.2 C 0 km/h
275 30-05-2019 22:50:00 16.2 C 12 g/m*3 16.2 C 0 km/h
Sensor: Nr:Datum:Temp:Abs-Feuchte:Windchill:Wind:
Aussen-T/F 276 30-05-2019 22:55:00 16.2 C 12 g/m*3 16.2 C 0 km/h
277 30-05-2019 23:00:00 16.2 C 12 g/m*3 16.2 C 0 km/h
278 30-05-2019 23:05:00 16.1 C 11.93 g/m*3 16.1 C 0 km/h
279 30-05-2019 23:10:00 16.1 C 11.93 g/m*3 16.1 C 0 km/h
280 30-05-2019 23:15:00 16.1 C 12.06 g/m*3 16.1 C 0 km/h
281 30-05-2019 23:20:00 16 C 11.99 g/m*3 16 C 0 km/h
282 30-05-2019 23:25:00 15.9 C 11.92 g/m*3 15.9 C 0 km/h
283 30-05-2019 23:30:00 15.8 C 11.85 g/m*3 15.8 C 0 km/h
284 30-05-2019 23:35:00 15.8 C 11.85 g/m*3 15.8 C 0 km/h
285 30-05-2019 23:40:00 15.7 C 11.77 g/m*3 15.7 C 0 km/h
286 30-05-2019 23:45:00 15.7 C 11.91 g/m*3 15.7 C 0 km/h
287 30-05-2019 23:50:00 15.7 C 11.91 g/m*3 15.7 C 0 km/h
288 30-05-2019 23:55:00 15.6 C 11.84 g/m*3 15.6 C 0 km/h
289 31-05-2019 00:00:00 15.6 C 11.84 g/m*3 15.6 C 0 km/h
290 31-05-2019 00:05:00 15.6 C 11.97 g/m*3 15.6 C 0 km/h
291 31-05-2019 00:10:00 15.6 C 11.97 g/m*3 15.6 C 0 km/h
292 31-05-2019 00:15:00 15.6 C 11.97 g/m*3 15.6 C 0 km/h
293 31-05-2019 00:20:00 15.6 C 11.97 g/m*3 15.6 C 1.6 km/h
294 31-05-2019 00:25:00 15.6 C 11.97 g/m*3 15.6 C 0 km/h
295 31-05-2019 00:30:00 15.7 C 12.04 g/m*3 15.7 C 3.2 km/h
296 31-05-2019 00:35:00 15.7 C 12.04 g/m*3 15.7 C 1.6 km/h
297 31-05-2019 00:40:00 15.7 C 12.04 g/m*3 15.7 C 0 km/h
298 31-05-2019 00:45:00 15.7 C 12.04 g/m*3 15.7 C 1.6 km/h
299 31-05-2019 00:50:00 15.7 C 12.04 g/m*3 15.7 C 0 km/h
300 31-05-2019 00:55:00 15.7 C 12.04 g/m*3 15.7 C 0 km/h
Sensor: Nr:Datum:Temp:Abs-Feuchte:Windchill:Wind:
Aussen-T/F 301 31-05-2019 01:00:00 15.7 C 12.04 g/m*3 15.7 C 0 km/h
302 31-05-2019 01:05:00 15.6 C 11.97 g/m*3 15.6 C 0 km/h
303 31-05-2019 01:10:00 15.6 C 12.1 g/m*3 15.6 C 0 km/h
304 31-05-2019 01:15:00 15.6 C 12.1 g/m*3 15.6 C 0 km/h
305 31-05-2019 01:20:00 15.6 C 12.1 g/m*3 15.6 C 1.6 km/h
306 31-05-2019 01:25:00 15.6 C 12.1 g/m*3 15.6 C 3.2 km/h
307 31-05-2019 01:30:00 15.6 C 12.1 g/m*3 15.6 C 1.6 km/h
308 31-05-2019 01:35:00 15.6 C 12.1 g/m*3 15.6 C 0 km/h
309 31-05-2019 01:40:00 15.6 C 12.1 g/m*3 15.6 C 1.6 km/h
310 31-05-2019 01:45:00 15.6 C 12.1 g/m*3 15.6 C 0 km/h
311 31-05-2019 01:50:00 15.6 C 12.1 g/m*3 15.6 C 3.2 km/h
312 31-05-2019 01:55:00 15.7 C 12.18 g/m*3 15.7 C 4.8 km/h
313 31-05-2019 02:00:00 15.7 C 12.18 g/m*3 15.7 C 1.6 km/h
314 31-05-2019 02:05:00 15.7 C 12.18 g/m*3 15.7 C 3.2 km/h
315 31-05-2019 02:10:00 15.7 C 12.18 g/m*3 15.7 C 3.2 km/h
316 31-05-2019 02:15:00 15.7 C 12.18 g/m*3 15.7 C 1.6 km/h
317 31-05-2019 02:20:00 15.7 C 12.18 g/m*3 15.7 C 0 km/h
318 31-05-2019 02:25:00 15.6 C 12.1 g/m*3 15.6 C 3.2 km/h
319 31-05-2019 02:30:00 15.5 C 12.03 g/m*3 15.5 C 1.6 km/h
320 31-05-2019 02:35:00 15.4 C 11.82 g/m*3 15.4 C 0 km/h
321 31-05-2019 02:40:00 15.3 C 11.75 g/m*3 15.3 C 0 km/h
322 31-05-2019 02:45:00 15.2 C 11.81 g/m*3 15.2 C 0 km/h
323 31-05-2019 02:50:00 15.1 C 11.74 g/m*3 15.1 C 0 km/h
324 31-05-2019 02:55:00 15 C 11.67 g/m*3 15 C 0 km/h
325 31-05-2019 03:00:00 14.8 C 11.53 g/m*3 14.8 C 0 km/h
Sensor: Nr:Datum:Temp:Abs-Feuchte:Windchill:Wind:
Aussen-T/F 326 31-05-2019 03:05:00 14.7 C 11.46 g/m*3 14.7 C 0 km/h
327 31-05-2019 03:10:00 14.5 C 11.32 g/m*3 14.5 C 0 km/h
328 31-05-2019 03:15:00 14.4 C 11.25 g/m*3 14.4 C 0 km/h
329 31-05-2019 03:20:00 14.3 C 11.18 g/m*3 14.3 C 0 km/h
330 31-05-2019 03:25:00 14.3 C 11.3 g/m*3 14.3 C 4.8 km/h
331 31-05-2019 03:30:00 14.3 C 11.43 g/m*3 14.3 C 1.6 km/h
332 31-05-2019 03:35:00 14.4 C 11.5 g/m*3 14.4 C 0 km/h
333 31-05-2019 03:40:00 14.4 C 11.5 g/m*3 14.4 C 1.6 km/h
334 31-05-2019 03:45:00 14.4 C 11.5 g/m*3 14.4 C 3.2 km/h
335 31-05-2019 03:50:00 14.3 C 11.43 g/m*3 14.3 C 3.2 km/h
336 31-05-2019 03:55:00 14.2 C 11.36 g/m*3 14.2 C 1.6 km/h
337 31-05-2019 04:00:00 14.2 C 11.36 g/m*3 14.2 C 0 km/h
338 31-05-2019 04:05:00 14.1 C 11.29 g/m*3 14.1 C 0 km/h
339 31-05-2019 04:10:00 13.9 C 11.15 g/m*3 13.9 C 0 km/h
340 31-05-2019 04:15:00 13.7 C 10.89 g/m*3 13.7 C 0 km/h
341 31-05-2019 04:20:00 13.6 C 10.95 g/m*3 13.6 C 0 km/h
342 31-05-2019 04:25:00 13.5 C 10.88 g/m*3 13.5 C 0 km/h
343 31-05-2019 04:30:00 13.4 C 10.81 g/m*3 13.4 C 0 km/h
344 31-05-2019 04:35:00 13.4 C 10.93 g/m*3 13.4 C 0 km/h
345 31-05-2019 04:40:00 13.4 C 10.93 g/m*3 13.4 C 0 km/h
346 31-05-2019 04:45:00 13.3 C 10.86 g/m*3 13.3 C 0 km/h
347 31-05-2019 04:50:00 13.2 C 10.68 g/m*3 13.2 C 0 km/h
348 31-05-2019 04:55:00 13.1 C 10.73 g/m*3 13.1 C 0 km/h
349 31-05-2019 05:00:00 13 C 10.66 g/m*3 13 C 0 km/h
350 31-05-2019 05:05:00 12.9 C 10.59 g/m*3 12.9 C 0 km/h
Sensor: Nr:Datum:Temp:Abs-Feuchte:Windchill:Wind:
Aussen-T/F 351 31-05-2019 05:10:00 12.9 C 10.59 g/m*3 12.9 C 0 km/h
352 31-05-2019 05:15:00 12.8 C 10.53 g/m*3 12.8 C 0 km/h
353 31-05-2019 05:20:00 12.8 C 10.53 g/m*3 12.8 C 0 km/h
354 31-05-2019 05:25:00 12.8 C 10.53 g/m*3 12.8 C 0 km/h
355 31-05-2019 05:30:00 12.8 C 10.64 g/m*3 12.8 C 0 km/h
356 31-05-2019 05:35:00 12.8 C 10.64 g/m*3 12.8 C 0 km/h
357 31-05-2019 05:40:00 12.8 C 10.64 g/m*3 12.8 C 0 km/h
358 31-05-2019 05:45:00 12.8 C 10.64 g/m*3 12.8 C 0 km/h
359 31-05-2019 05:50:00 12.8 C 10.64 g/m*3 12.8 C 0 km/h
360 31-05-2019 05:55:00 12.8 C 10.64 g/m*3 12.8 C 0 km/h
361 31-05-2019 06:00:00 12.7 C 10.58 g/m*3 12.7 C 0 km/h
362 31-05-2019 06:05:00 12.7 C 10.58 g/m*3 12.7 C 0 km/h
363 31-05-2019 06:10:00 12.7 C 10.58 g/m*3 12.7 C 0 km/h
364 31-05-2019 06:15:00 12.7 C 10.58 g/m*3 12.7 C 0 km/h
365 31-05-2019 06:20:00 12.7 C 10.58 g/m*3 12.7 C 0 km/h
366 31-05-2019 06:25:00 12.7 C 10.58 g/m*3 12.7 C 0 km/h
367 31-05-2019 06:30:00 12.8 C 10.64 g/m*3 12.8 C 0 km/h
368 31-05-2019 06:35:00 12.8 C 10.64 g/m*3 12.8 C 0 km/h
369 31-05-2019 06:40:00 12.8 C 10.64 g/m*3 12.8 C 0 km/h
370 31-05-2019 06:45:00 12.8 C 10.64 g/m*3 12.8 C 0 km/h
371 31-05-2019 06:50:00 12.8 C 10.64 g/m*3 12.8 C 0 km/h
372 31-05-2019 06:55:00 12.8 C 10.64 g/m*3 12.8 C 0 km/h
373 31-05-2019 07:00:00 12.8 C 10.64 g/m*3 12.8 C 0 km/h
374 31-05-2019 07:05:00 12.9 C 10.82 g/m*3 12.9 C 0 km/h
375 31-05-2019 07:10:00 13 C 10.89 g/m*3 13 C 0 km/h
Sensor: Nr:Datum:Temp:Abs-Feuchte:Windchill:Wind:
Aussen-T/F 376 31-05-2019 07:15:00 13.1 C 10.95 g/m*3 13.1 C 0 km/h
377 31-05-2019 07:20:00 13.1 C 10.95 g/m*3 13.1 C 0 km/h
378 31-05-2019 07:25:00 13.1 C 10.95 g/m*3 13.1 C 0 km/h
379 31-05-2019 07:30:00 13.1 C 10.95 g/m*3 13.1 C 0 km/h
380 31-05-2019 07:35:00 13.1 C 10.95 g/m*3 13.1 C 0 km/h
381 31-05-2019 07:40:00 13.1 C 10.95 g/m*3 13.1 C 0 km/h
382 31-05-2019 07:45:00 13.2 C 11.02 g/m*3 13.2 C 0 km/h
383 31-05-2019 07:50:00 13.3 C 11.09 g/m*3 13.3 C 0 km/h
384 31-05-2019 07:55:00 13.4 C 11.16 g/m*3 13.4 C 0 km/h
385 31-05-2019 08:00:00 13.6 C 11.3 g/m*3 13.6 C 0 km/h
386 31-05-2019 08:05:00 13.7 C 11.37 g/m*3 13.7 C 0 km/h
387 31-05-2019 08:10:00 13.8 C 11.44 g/m*3 13.8 C 0 km/h
388 31-05-2019 08:15:00 13.9 C 11.51 g/m*3 13.9 C 0 km/h
389 31-05-2019 08:20:00 14 C 11.58 g/m*3 14 C 0 km/h
390 31-05-2019 08:25:00 14.1 C 11.65 g/m*3 14.1 C 0 km/h
391 31-05-2019 08:30:00 14.2 C 11.72 g/m*3 14.2 C 0 km/h
392 31-05-2019 08:35:00 14.3 C 11.79 g/m*3 14.3 C 0 km/h
393 31-05-2019 08:40:00 14.4 C 11.87 g/m*3 14.4 C 0 km/h
394 31-05-2019 08:45:00 14.6 C 11.89 g/m*3 14.6 C 0 km/h
395 31-05-2019 08:50:00 14.7 C 11.96 g/m*3 14.7 C 0 km/h
396 31-05-2019 08:55:00 14.8 C 12.03 g/m*3 14.8 C 0 km/h
397 31-05-2019 09:00:00 14.9 C 11.98 g/m*3 14.9 C 8.1 km/h
398 31-05-2019 09:05:00 15.3 C 12.14 g/m*3 15.3 C 8.1 km/h
399 31-05-2019 09:10:00 15.6 C 12.1 g/m*3 15.6 C 9.7 km/h
400 31-05-2019 09:15:00 15.9 C 12.19 g/m*3 15.9 C 4.8 km/h
Sensor: Nr:Datum:Temp:Abs-Feuchte:Windchill:Wind:
Aussen-T/F 401 31-05-2019 09:20:00 16.2 C 12.14 g/m*3 16.2 C 6.4 km/h
402 31-05-2019 09:25:00 16.3 C 12.07 g/m*3 16.3 C 6.4 km/h
403 31-05-2019 09:30:00 16.4 C 12.14 g/m*3 16.4 C 4.8 km/h
404 31-05-2019 09:35:00 16.6 C 12.15 g/m*3 16.6 C 1.6 km/h
405 31-05-2019 09:40:00 16.7 C 12.36 g/m*3 16.7 C 4.8 km/h
406 31-05-2019 09:45:00 16.8 C 12.15 g/m*3 16.8 C 8.1 km/h
407 31-05-2019 09:50:00 17 C 12.15 g/m*3 17 C 6.4 km/h
408 31-05-2019 09:55:00 17.2 C 12.15 g/m*3 17.2 C 3.2 km/h
409 31-05-2019 10:00:00 17.3 C 12.08 g/m*3 17.3 C 3.2 km/h
410 31-05-2019 10:05:00 17.6 C 12 g/m*3 17.6 C 4.8 km/h
411 31-05-2019 10:10:00 17.9 C 12.06 g/m*3 17.9 C 9.7 km/h
412 31-05-2019 10:15:00 18.2 C 12.12 g/m*3 18.2 C 6.4 km/h
413 31-05-2019 10:20:00 18.4 C 11.8 g/m*3 18.4 C 8.1 km/h
414 31-05-2019 10:25:00 18.7 C 12.01 g/m*3 18.7 C 6.4 km/h
415 31-05-2019 10:30:00 18.8 C 11.76 g/m*3 18.8 C 8.1 km/h
416 31-05-2019 10:35:00 19.2 C 12.04 g/m*3 19.2 C 8.1 km/h
417 31-05-2019 10:40:00 19.4 C 12.01 g/m*3 19.4 C 8.1 km/h
418 31-05-2019 10:45:00 19.5 C 11.58 g/m*3 19.5 C 4.8 km/h
419 31-05-2019 10:50:00 19.6 C 11.82 g/m*3 19.6 C 4.8 km/h
420 31-05-2019 10:55:00 19.7 C 11.72 g/m*3 19.7 C 8.1 km/h
421 31-05-2019 11:00:00 19.8 C 12.13 g/m*3 19.8 C 8.1 km/h
422 31-05-2019 11:05:00 19.8 C 12.13 g/m*3 19.8 C 4.8 km/h
423 31-05-2019 11:10:00 19.8 C 11.79 g/m*3 19.8 C 6.4 km/h
424 31-05-2019 11:15:00 19.9 C 12.03 g/m*3 19.9 C 3.2 km/h
425 31-05-2019 11:20:00 19.9 C 11.85 g/m*3 19.9 C 3.2 km/h
Sensor: Nr:Datum:Temp:Abs-Feuchte:Windchill:Wind:
Aussen-T/F 426 31-05-2019 11:25:00 20.1 C 11.47 g/m*3 20.1 C 9.7 km/h
427 31-05-2019 11:30:00 20.3 C 11.78 g/m*3 20.3 C 12.9 km/h
428 31-05-2019 11:35:00 20.4 C 11.85 g/m*3 20.4 C 8.1 km/h
429 31-05-2019 11:40:00 20.6 C 11.81 g/m*3 20.6 C 8.1 km/h
430 31-05-2019 11:45:00 20.6 C 11.99 g/m*3 20.6 C 6.4 km/h
431 31-05-2019 11:50:00 20.7 C 12.24 g/m*3 20.7 C 4.8 km/h
432 31-05-2019 11:55:00 20.8 C 12.31 g/m*3 20.8 C 6.4 km/h
433 31-05-2019 12:00:00 20.9 C 12.02 g/m*3 20.9 C 8.1 km/h
434 31-05-2019 12:05:00 20.9 C 12.02 g/m*3 20.9 C 4.8 km/h
435 31-05-2019 12:10:00 21.1 C 12.53 g/m*3 21.1 C 8.1 km/h
436 31-05-2019 12:15:00 21.2 C 12.23 g/m*3 21.2 C 8.1 km/h
437 31-05-2019 12:20:00 21.3 C 12.3 g/m*3 21.3 C 8.1 km/h
438 31-05-2019 12:25:00 21.3 C 12.3 g/m*3 21.3 C 8.1 km/h
439 31-05-2019 12:30:00 21.3 C 12.49 g/m*3 21.3 C 8.1 km/h
440 31-05-2019 12:35:00 21.4 C 12 g/m*3 21.4 C 9.7 km/h
441 31-05-2019 12:40:00 21.5 C 12.45 g/m*3 21.5 C 9.7 km/h
442 31-05-2019 12:45:00 21.7 C 12.21 g/m*3 21.7 C 9.7 km/h
443 31-05-2019 12:50:00 21.9 C 12.16 g/m*3 21.9 C 14.5 km/h
444 31-05-2019 12:55:00 22 C 12.03 g/m*3 22 C 11.3 km/h
445 31-05-2019 13:00:00 22 C 12.03 g/m*3 22 C 11.3 km/h
446 31-05-2019 13:05:00 22.2 C 12.37 g/m*3 22.2 C 8.1 km/h
447 31-05-2019 13:10:00 22.3 C 12.44 g/m*3 22.3 C 9.7 km/h
448 31-05-2019 13:15:00 22.4 C 12.11 g/m*3 22.4 C 12.9 km/h
449 31-05-2019 13:20:00 22.4 C 11.92 g/m*3 22.4 C 12.9 km/h
450 31-05-2019 13:25:00 22.6 C 12.46 g/m*3 22.6 C 9.7 km/h
Sensor: Nr:Datum:Temp:Abs-Feuchte:Windchill:Wind:
Aussen-T/F 451 31-05-2019 13:30:00 22.7 C 12.53 g/m*3 22.7 C 8.1 km/h
452 31-05-2019 13:35:00 22.8 C 12.4 g/m*3 22.8 C 9.7 km/h
453 31-05-2019 13:40:00 23.1 C 12.2 g/m*3 23.1 C 11.3 km/h
454 31-05-2019 13:45:00 23.3 C 12.34 g/m*3 23.3 C 11.3 km/h
455 31-05-2019 13:50:00 23.4 C 11.78 g/m*3 23.4 C 8.1 km/h
456 31-05-2019 13:55:00 23.5 C 12.05 g/m*3 23.5 C 9.7 km/h
457 31-05-2019 14:00:00 23.7 C 11.98 g/m*3 23.7 C 11.3 km/h
458 31-05-2019 14:05:00 23.7 C 12.41 g/m*3 23.7 C 9.7 km/h
459 31-05-2019 14:10:00 23.6 C 11.91 g/m*3 23.6 C 9.7 km/h
460 31-05-2019 14:15:00 23.4 C 12.2 g/m*3 23.4 C 9.7 km/h
461 31-05-2019 14:20:00 23.6 C 12.12 g/m*3 23.6 C 11.3 km/h
462 31-05-2019 14:25:00 23.8 C 11.83 g/m*3 23.8 C 9.7 km/h
463 31-05-2019 14:30:00 23.9 C 12.11 g/m*3 23.9 C 9.7 km/h
464 31-05-2019 14:35:00 24.1 C 12.25 g/m*3 24.1 C 12.9 km/h
465 31-05-2019 14:40:00 24.3 C 11.95 g/m*3 24.3 C 14.5 km/h
466 31-05-2019 14:45:00 24.3 C 11.73 g/m*3 24.3 C 14.5 km/h
467 31-05-2019 14:50:00 24.3 C 11.95 g/m*3 24.3 C 16.1 km/h
468 31-05-2019 14:55:00 24.4 C 11.79 g/m*3 24.4 C 16.1 km/h
469 31-05-2019 15:00:00 24.6 C 11.48 g/m*3 24.6 C 9.7 km/h
470 31-05-2019 15:05:00 24.4 C 11.79 g/m*3 24.4 C 3.2 km/h
471 31-05-2019 15:10:00 24.3 C 12.17 g/m*3 24.3 C 14.5 km/h
472 31-05-2019 15:15:00 24.7 C 12.45 g/m*3 24.7 C 11.3 km/h
473 31-05-2019 15:20:00 25 C 12.2 g/m*3 25 C 9.7 km/h
474 31-05-2019 15:25:00 25.3 C 11.71 g/m*3 25.3 C 11.3 km/h
475 31-05-2019 15:30:00 25.3 C 12.17 g/m*3 25.3 C 9.7 km/h
Sensor: Nr:Datum:Temp:Abs-Feuchte:Windchill:Wind:
Aussen-T/F 476 31-05-2019 15:35:00 25 C 11.97 g/m*3 25 C 11.3 km/h
477 31-05-2019 15:40:00 25.4 C 12.48 g/m*3 25.4 C 11.3 km/h
478 31-05-2019 15:45:00 26.1 C 12.49 g/m*3 26.1 C 14.5 km/h
479 31-05-2019 15:50:00 26.6 C 11.83 g/m*3 26.6 C 12.9 km/h
480 31-05-2019 15:55:00 26.7 C 11.9 g/m*3 26.7 C 12.9 km/h
481 31-05-2019 16:00:00 26.8 C 12.47 g/m*3 26.8 C 9.7 km/h
482 31-05-2019 16:05:00 26.7 C 11.64 g/m*3 26.7 C 9.7 km/h
483 31-05-2019 16:10:00 26.9 C 12.54 g/m*3 26.9 C 6.4 km/h
484 31-05-2019 16:15:00 27 C 12.35 g/m*3 27 C 9.7 km/h
485 31-05-2019 16:20:00 27.1 C 11.9 g/m*3 27.1 C 17.7 km/h
486 31-05-2019 16:25:00 27.2 C 11.97 g/m*3 27.2 C 9.7 km/h
487 31-05-2019 16:30:00 27.4 C 11.84 g/m*3 27.4 C 9.7 km/h
488 31-05-2019 16:35:00 27.6 C 11.44 g/m*3 27.6 C 11.3 km/h
489 31-05-2019 16:40:00 27.8 C 11.83 g/m*3 27.8 C 6.4 km/h
490 31-05-2019 16:45:00 27.8 C 11.57 g/m*3 27.8 C 11.3 km/h
491 31-05-2019 16:50:00 27.7 C 10.97 g/m*3 27.7 C 8.1 km/h
492 31-05-2019 16:55:00 27.6 C 11.17 g/m*3 27.6 C 8.1 km/h
493 31-05-2019 17:00:00 27.5 C 11.91 g/m*3 27.5 C 8.1 km/h
494 31-05-2019 17:05:00 27.5 C 12.17 g/m*3 27.5 C 16.1 km/h
495 31-05-2019 17:10:00 27.4 C 11.58 g/m*3 27.4 C 12.9 km/h
496 31-05-2019 17:15:00 27.6 C 12.24 g/m*3 27.6 C 11.3 km/h
497 31-05-2019 17:20:00 27.7 C 12.57 g/m*3 27.7 C 8.1 km/h
498 31-05-2019 17:25:00 27.8 C 11.57 g/m*3 27.8 C 9.7 km/h
499 31-05-2019 17:30:00 27.5 C 11.91 g/m*3 27.5 C 11.3 km/h
500 31-05-2019 17:35:00 27.4 C 11.05 g/m*3 27.4 C 9.7 km/h
Sensor: Nr:Datum:Temp:Abs-Feuchte:Windchill:Wind:
Aussen-T/F 501 31-05-2019 17:40:00 27.4 C 11.31 g/m*3 27.4 C 6.4 km/h
502 31-05-2019 17:45:00 27.4 C 11.84 g/m*3 27.4 C 6.4 km/h
503 31-05-2019 17:50:00 27.3 C 11.77 g/m*3 27.3 C 9.7 km/h
504 31-05-2019 17:55:00 27.6 C 11.97 g/m*3 27.6 C 4.8 km/h
505 31-05-2019 18:00:00 27.8 C 11.3 g/m*3 27.8 C 8.1 km/h
506 31-05-2019 18:05:00 27.9 C 12.17 g/m*3 27.9 C 6.4 km/h
507 31-05-2019 18:10:00 28.1 C 11.21 g/m*3 28.1 C 4.8 km/h
508 31-05-2019 18:15:00 27.8 C 11.83 g/m*3 27.8 C 6.4 km/h
509 31-05-2019 18:20:00 27.8 C 11.03 g/m*3 27.8 C 6.4 km/h
510 31-05-2019 18:25:00 27.8 C 11.3 g/m*3 27.8 C 6.4 km/h
511 31-05-2019 18:30:00 27.7 C 10.97 g/m*3 27.7 C 9.7 km/h
512 31-05-2019 18:35:00 27.4 C 11.84 g/m*3 27.4 C 6.4 km/h
513 31-05-2019 18:40:00 27.3 C 11.51 g/m*3 27.3 C 8.1 km/h
514 31-05-2019 18:45:00 27.2 C 11.19 g/m*3 27.2 C 8.1 km/h
515 31-05-2019 18:50:00 27.1 C 11.13 g/m*3 27.1 C 8.1 km/h
516 31-05-2019 18:55:00 27.1 C 11.9 g/m*3 27.1 C 11.3 km/h
517 31-05-2019 19:00:00 27.2 C 11.45 g/m*3 27.2 C 11.3 km/h
518 31-05-2019 19:05:00 26.9 C 11.77 g/m*3 26.9 C 4.8 km/h
519 31-05-2019 19:10:00 26.7 C 12.4 g/m*3 26.7 C 1.6 km/h
520 31-05-2019 19:15:00 26.3 C 12.38 g/m*3 26.3 C 0 km/h
521 31-05-2019 19:20:00 25.8 C 13 g/m*3 25.8 C 0 km/h
522 31-05-2019 19:25:00 25.6 C 13.09 g/m*3 25.6 C 0 km/h
523 31-05-2019 19:30:00 25.4 C 12.71 g/m*3 25.4 C 3.2 km/h
524 31-05-2019 19:35:00 25.2 C 12.11 g/m*3 25.2 C 1.6 km/h
525 31-05-2019 19:40:00 25.1 C 12.73 g/m*3 25.1 C 0 km/h
Sensor: Nr:Datum:Temp:Abs-Feuchte:Windchill:Wind:
Aussen-T/F 526 31-05-2019 19:45:00 24.8 C 11.61 g/m*3 24.8 C 3.2 km/h
527 31-05-2019 19:50:00 24.4 C 11.57 g/m*3 24.4 C 3.2 km/h
528 31-05-2019 19:55:00 24.2 C 12.54 g/m*3 24.2 C 1.6 km/h
529 31-05-2019 20:00:00 23.8 C 12.26 g/m*3 23.8 C 1.6 km/h
530 31-05-2019 20:05:00 23.5 C 11.63 g/m*3 23.5 C 4.8 km/h
531 31-05-2019 20:10:00 23.5 C 11.84 g/m*3 23.5 C 3.2 km/h
532 31-05-2019 20:15:00 23.7 C 11.98 g/m*3 23.7 C 3.2 km/h
533 31-05-2019 20:20:00 23.8 C 11.83 g/m*3 23.8 C 3.2 km/h
534 31-05-2019 20:25:00 23.9 C 12.11 g/m*3 23.9 C 1.6 km/h
535 31-05-2019 20:30:00 24 C 13.05 g/m*3 24 C 1.6 km/h
536 31-05-2019 20:35:00 23.9 C 12.76 g/m*3 23.9 C 1.6 km/h
537 31-05-2019 20:40:00 23.9 C 13.2 g/m*3 23.9 C 1.6 km/h
538 31-05-2019 20:45:00 23.7 C 12.83 g/m*3 23.7 C 1.6 km/h
539 31-05-2019 20:50:00 23.3 C 13.38 g/m*3 23.3 C 0 km/h
540 31-05-2019 20:55:00 22.7 C 13.13 g/m*3 22.7 C 0 km/h
541 31-05-2019 21:00:00 22.2 C 13.15 g/m*3 22.2 C 0 km/h
542 31-05-2019 21:05:00 21.6 C 13.09 g/m*3 21.6 C 0 km/h
543 31-05-2019 21:10:00 21.1 C 12.9 g/m*3 21.1 C 0 km/h
544 31-05-2019 21:15:00 20.7 C 12.78 g/m*3 20.7 C 0 km/h
545 31-05-2019 21:20:00 20.3 C 12.49 g/m*3 20.3 C 0 km/h
546 31-05-2019 21:25:00 20 C 12.44 g/m*3 20 C 0 km/h
547 31-05-2019 21:30:00 19.7 C 12.23 g/m*3 19.7 C 0 km/h
548 31-05-2019 21:35:00 19.5 C 12.25 g/m*3 19.5 C 0 km/h
549 31-05-2019 21:40:00 19.3 C 12.11 g/m*3 19.3 C 0 km/h
550 31-05-2019 21:45:00 19.1 C 12.13 g/m*3 19.1 C 0 km/h
Sensor: Nr:Datum:Temp:Abs-Feuchte:Windchill:Wind:
Aussen-T/F 551 31-05-2019 21:50:00 18.9 C 11.99 g/m*3 18.9 C 0 km/h
552 31-05-2019 21:55:00 18.7 C 12.01 g/m*3 18.7 C 0 km/h
553 31-05-2019 22:00:00 18.6 C 11.94 g/m*3 18.6 C 0 km/h
554 31-05-2019 22:05:00 18.4 C 11.95 g/m*3 18.4 C 0 km/h
555 31-05-2019 22:10:00 18.3 C 12.04 g/m*3 18.3 C 0 km/h
556 31-05-2019 22:15:00 18.2 C 11.97 g/m*3 18.2 C 0 km/h
557 31-05-2019 22:20:00 18 C 11.98 g/m*3 18 C 0 km/h
558 31-05-2019 22:25:00 17.8 C 11.84 g/m*3 17.8 C 0 km/h
559 31-05-2019 22:30:00 17.7 C 11.92 g/m*3 17.7 C 0 km/h
560 31-05-2019 22:35:00 17.5 C 11.93 g/m*3 17.5 C 0 km/h
561 31-05-2019 22:40:00 17.3 C 11.79 g/m*3 17.3 C 0 km/h
562 31-05-2019 22:45:00 17.2 C 11.86 g/m*3 17.2 C 0 km/h
563 31-05-2019 22:50:00 16.9 C 11.65 g/m*3 16.9 C 0 km/h
564 31-05-2019 22:55:00 16.8 C 11.72 g/m*3 16.8 C 0 km/h
565 31-05-2019 23:00:00 16.7 C 11.8 g/m*3 16.7 C 0 km/h
566 31-05-2019 23:05:00 16.5 C 11.65 g/m*3 16.5 C 0 km/h
567 31-05-2019 23:10:00 16.3 C 11.65 g/m*3 16.3 C 0 km/h
568 31-05-2019 23:15:00 16.2 C 11.58 g/m*3 16.2 C 0 km/h
569 31-05-2019 23:20:00 16.1 C 11.51 g/m*3 16.1 C 0 km/h
570 31-05-2019 23:25:00 15.9 C 11.51 g/m*3 15.9 C 0 km/h
571 31-05-2019 23:30:00 15.8 C 11.44 g/m*3 15.8 C 0 km/h
572 31-05-2019 23:35:00 15.7 C 11.51 g/m*3 15.7 C 0 km/h
573 31-05-2019 23:40:00 15.6 C 11.44 g/m*3 15.6 C 0 km/h
574 31-05-2019 23:45:00 15.5 C 11.5 g/m*3 15.5 C 0 km/h
575 31-05-2019 23:50:00 15.4 C 11.43 g/m*3 15.4 C 0 km/h
Sensor: Nr:Datum:Temp:Abs-Feuchte:Windchill:Wind:
Aussen-T/F 576 31-05-2019 23:55:00 15.3 C 11.36 g/m*3 15.3 C 0 km/h
577 01-06-2019 00:00:00 15.2 C 11.42 g/m*3 15.2 C 0 km/h
578 01-06-2019 00:05:00 15.1 C 11.35 g/m*3 15.1 C 0 km/h
579 01-06-2019 00:10:00 14.9 C 11.22 g/m*3 14.9 C 0 km/h
580 01-06-2019 00:15:00 14.8 C 11.15 g/m*3 14.8 C 0 km/h
581 01-06-2019 00:20:00 14.8 C 11.15 g/m*3 14.8 C 0 km/h
582 01-06-2019 00:25:00 14.7 C 11.08 g/m*3 14.7 C 0 km/h
583 01-06-2019 00:30:00 14.6 C 11.14 g/m*3 14.6 C 0 km/h
584 01-06-2019 00:35:00 14.6 C 11.14 g/m*3 14.6 C 0 km/h
585 01-06-2019 00:40:00 14.4 C 11 g/m*3 14.4 C 0 km/h
586 01-06-2019 00:45:00 14.3 C 11.06 g/m*3 14.3 C 0 km/h
587 01-06-2019 00:50:00 14.2 C 10.99 g/m*3 14.2 C 0 km/h
588 01-06-2019 00:55:00 14.2 C 11.11 g/m*3 14.2 C 0 km/h
589 01-06-2019 01:00:00 14.2 C 11.11 g/m*3 14.2 C 0 km/h
590 01-06-2019 01:05:00 14.1 C 11.04 g/m*3 14.1 C 0 km/h
591 01-06-2019 01:10:00 14.1 C 11.04 g/m*3 14.1 C 0 km/h
592 01-06-2019 01:15:00 14.1 C 11.17 g/m*3 14.1 C 0 km/h
593 01-06-2019 01:20:00 14 C 10.98 g/m*3 14 C 0 km/h
594 01-06-2019 01:25:00 13.9 C 10.91 g/m*3 13.9 C 0 km/h
595 01-06-2019 01:30:00 13.8 C 10.96 g/m*3 13.8 C 0 km/h
596 01-06-2019 01:35:00 13.8 C 10.96 g/m*3 13.8 C 0 km/h
597 01-06-2019 01:40:00 13.8 C 10.96 g/m*3 13.8 C 0 km/h
598 01-06-2019 01:45:00 13.8 C 10.96 g/m*3 13.8 C 0 km/h
599 01-06-2019 01:50:00 13.7 C 10.89 g/m*3 13.7 C 0 km/h
600 01-06-2019 01:55:00 13.7 C 10.89 g/m*3 13.7 C 0 km/h
Sensor: Nr:Datum:Temp:Abs-Feuchte:Windchill:Wind:
Aussen-T/F 601 01-06-2019 02:00:00 13.6 C 10.83 g/m*3 13.6 C 0 km/h
602 01-06-2019 02:05:00 13.5 C 10.76 g/m*3 13.5 C 0 km/h
603 01-06-2019 02:10:00 13.4 C 10.69 g/m*3 13.4 C 0 km/h
604 01-06-2019 02:15:00 13.4 C 10.69 g/m*3 13.4 C 0 km/h
605 01-06-2019 02:20:00 13.4 C 10.81 g/m*3 13.4 C 0 km/h
606 01-06-2019 02:25:00 13.3 C 10.74 g/m*3 13.3 C 0 km/h
607 01-06-2019 02:30:00 13.3 C 10.74 g/m*3 13.3 C 0 km/h
608 01-06-2019 02:35:00 13.3 C 10.74 g/m*3 13.3 C 0 km/h
609 01-06-2019 02:40:00 13.2 C 10.68 g/m*3 13.2 C 0 km/h
610 01-06-2019 02:45:00 13.2 C 10.68 g/m*3 13.2 C 0 km/h
611 01-06-2019 02:50:00 13.2 C 10.68 g/m*3 13.2 C 0 km/h
612 01-06-2019 02:55:00 13.1 C 10.61 g/m*3 13.1 C 0 km/h
613 01-06-2019 03:00:00 13.1 C 10.61 g/m*3 13.1 C 0 km/h
614 01-06-2019 03:05:00 13.1 C 10.73 g/m*3 13.1 C 0 km/h
615 01-06-2019 03:10:00 13.1 C 10.73 g/m*3 13.1 C 0 km/h
616 01-06-2019 03:15:00 13.1 C 10.73 g/m*3 13.1 C 0 km/h
617 01-06-2019 03:20:00 13 C 10.66 g/m*3 13 C 0 km/h
618 01-06-2019 03:25:00 12.8 C 10.42 g/m*3 12.8 C 0 km/h
619 01-06-2019 03:30:00 12.8 C 10.42 g/m*3 12.8 C 0 km/h
620 01-06-2019 03:35:00 12.7 C 10.46 g/m*3 12.7 C 0 km/h
621 01-06-2019 03:40:00 12.7 C 10.46 g/m*3 12.7 C 0 km/h
622 01-06-2019 03:45:00 12.6 C 10.4 g/m*3 12.6 C 0 km/h
623 01-06-2019 03:50:00 12.6 C 10.4 g/m*3 12.6 C 0 km/h
624 01-06-2019 03:55:00 12.4 C 10.27 g/m*3 12.4 C 0 km/h
625 01-06-2019 04:00:00 12.4 C 10.27 g/m*3 12.4 C 0 km/h
Sensor: Nr:Datum:Temp:Abs-Feuchte:Windchill:Wind:
Aussen-T/F 626 01-06-2019 04:05:00 12.4 C 10.27 g/m*3 12.4 C 0 km/h
627 01-06-2019 04:10:00 12.3 C 10.21 g/m*3 12.3 C 0 km/h
628 01-06-2019 04:15:00 12.3 C 10.21 g/m*3 12.3 C 0 km/h
629 01-06-2019 04:20:00 12.3 C 10.21 g/m*3 12.3 C 0 km/h
630 01-06-2019 04:25:00 12.3 C 10.21 g/m*3 12.3 C 1.6 km/h
631 01-06-2019 04:30:00 12.3 C 10.21 g/m*3 12.3 C 0 km/h
632 01-06-2019 04:35:00 12.2 C 10.14 g/m*3 12.2 C 0 km/h
633 01-06-2019 04:40:00 12.1 C 10.08 g/m*3 12.1 C 0 km/h
634 01-06-2019 04:45:00 12 C 10.02 g/m*3 12 C 0 km/h
635 01-06-2019 04:50:00 11.9 C 9.96 g/m*3 11.9 C 0 km/h
636 01-06-2019 04:55:00 11.9 C 9.96 g/m*3 11.9 C 0 km/h
637 01-06-2019 05:00:00 11.8 C 9.89 g/m*3 11.8 C 0 km/h
638 01-06-2019 05:05:00 11.8 C 10 g/m*3 11.8 C 0 km/h
639 01-06-2019 05:10:00 11.9 C 10.06 g/m*3 11.9 C 0 km/h
640 01-06-2019 05:15:00 11.9 C 10.06 g/m*3 11.9 C 0 km/h
641 01-06-2019 05:20:00 11.8 C 10 g/m*3 11.8 C 0 km/h
642 01-06-2019 05:25:00 11.8 C 10 g/m*3 11.8 C 0 km/h
643 01-06-2019 05:30:00 11.8 C 10 g/m*3 11.8 C 0 km/h
644 01-06-2019 05:35:00 11.7 C 9.94 g/m*3 11.7 C 0 km/h
645 01-06-2019 05:40:00 11.6 C 9.87 g/m*3 11.6 C 0 km/h
646 01-06-2019 05:45:00 11.6 C 9.87 g/m*3 11.6 C 0 km/h
647 01-06-2019 05:50:00 11.6 C 9.87 g/m*3 11.6 C 0 km/h
648 01-06-2019 05:55:00 11.8 C 10 g/m*3 11.8 C 1.6 km/h
649 01-06-2019 06:00:00 11.9 C 10.17 g/m*3 11.9 C 1.6 km/h
650 01-06-2019 06:05:00 11.9 C 10.17 g/m*3 11.9 C 0 km/h
Sensor: Nr:Datum:Temp:Abs-Feuchte:Windchill:Wind:
Aussen-T/F 651 01-06-2019 06:10:00 11.9 C 10.06 g/m*3 11.9 C 0 km/h
652 01-06-2019 06:15:00 11.8 C 10 g/m*3 11.8 C 0 km/h
653 01-06-2019 06:20:00 11.7 C 9.94 g/m*3 11.7 C 0 km/h
654 01-06-2019 06:25:00 11.7 C 9.94 g/m*3 11.7 C 0 km/h
655 01-06-2019 06:30:00 11.7 C 9.94 g/m*3 11.7 C 0 km/h
656 01-06-2019 06:35:00 11.8 C 10 g/m*3 11.8 C 0 km/h
657 01-06-2019 06:40:00 11.8 C 10 g/m*3 11.8 C 0 km/h
658 01-06-2019 06:45:00 11.8 C 10 g/m*3 11.8 C 0 km/h
659 01-06-2019 06:50:00 11.9 C 10.17 g/m*3 11.9 C 0 km/h
660 01-06-2019 06:55:00 12 C 10.23 g/m*3 12 C 3.2 km/h
661 01-06-2019 07:00:00 12.1 C 10.29 g/m*3 12.1 C 3.2 km/h
662 01-06-2019 07:05:00 12.2 C 10.36 g/m*3 12.2 C 3.2 km/h
663 01-06-2019 07:10:00 12.3 C 10.42 g/m*3 12.3 C 0 km/h
664 01-06-2019 07:15:00 12.3 C 10.42 g/m*3 12.3 C 0 km/h
665 01-06-2019 07:20:00 12.4 C 10.49 g/m*3 12.4 C 0 km/h
666 01-06-2019 07:25:00 12.5 C 10.55 g/m*3 12.5 C 1.6 km/h
667 01-06-2019 07:30:00 12.6 C 10.62 g/m*3 12.6 C 4.8 km/h
668 01-06-2019 07:35:00 12.8 C 10.75 g/m*3 12.8 C 3.2 km/h
669 01-06-2019 07:40:00 12.9 C 10.82 g/m*3 12.9 C 1.6 km/h
670 01-06-2019 07:45:00 13 C 10.89 g/m*3 13 C 1.6 km/h
671 01-06-2019 07:50:00 13.1 C 10.95 g/m*3 13.1 C 3.2 km/h
672 01-06-2019 07:55:00 13.2 C 11.02 g/m*3 13.2 C 4.8 km/h
673 01-06-2019 08:00:00 13.3 C 10.98 g/m*3 13.3 C 1.6 km/h
674 01-06-2019 08:05:00 13.3 C 10.98 g/m*3 13.3 C 3.2 km/h
675 01-06-2019 08:10:00 13.4 C 11.04 g/m*3 13.4 C 4.8 km/h
Sensor: Nr:Datum:Temp:Abs-Feuchte:Windchill:Wind:
Aussen-T/F 676 01-06-2019 08:15:00 13.6 C 11.18 g/m*3 13.6 C 4.8 km/h
677 01-06-2019 08:20:00 13.7 C 11.25 g/m*3 13.7 C 0 km/h
678 01-06-2019 08:25:00 13.8 C 11.32 g/m*3 13.8 C 0 km/h
679 01-06-2019 08:30:00 13.9 C 11.39 g/m*3 13.9 C 0 km/h
680 01-06-2019 08:35:00 14.1 C 11.53 g/m*3 14.1 C 1.6 km/h
681 01-06-2019 08:40:00 14.2 C 11.6 g/m*3 14.2 C 1.6 km/h
682 01-06-2019 08:45:00 14.3 C 11.55 g/m*3 14.3 C 0 km/h
683 01-06-2019 08:50:00 14.4 C 11.62 g/m*3 14.4 C 0 km/h
684 01-06-2019 08:55:00 14.5 C 11.69 g/m*3 14.5 C 1.6 km/h
685 01-06-2019 09:00:00 14.7 C 11.83 g/m*3 14.7 C 1.6 km/h
686 01-06-2019 09:05:00 14.8 C 11.78 g/m*3 14.8 C 3.2 km/h
687 01-06-2019 09:10:00 15.1 C 12 g/m*3 15.1 C 3.2 km/h
688 01-06-2019 09:15:00 15.2 C 11.94 g/m*3 15.2 C 3.2 km/h
689 01-06-2019 09:20:00 15.4 C 11.96 g/m*3 15.4 C 1.6 km/h
690 01-06-2019 09:25:00 15.5 C 12.03 g/m*3 15.5 C 0 km/h
691 01-06-2019 09:30:00 15.6 C 12.1 g/m*3 15.6 C 0 km/h
692 01-06-2019 09:35:00 15.7 C 12.18 g/m*3 15.7 C 0 km/h
693 01-06-2019 09:40:00 15.7 C 12.18 g/m*3 15.7 C 0 km/h
694 01-06-2019 09:45:00 15.8 C 12.25 g/m*3 15.8 C 0 km/h
695 01-06-2019 09:50:00 15.9 C 12.32 g/m*3 15.9 C 0 km/h
696 01-06-2019 09:55:00 16 C 12.4 g/m*3 16 C 0 km/h
697 01-06-2019 10:00:00 16.1 C 12.34 g/m*3 16.1 C 0 km/h
698 01-06-2019 10:05:00 16.3 C 12.35 g/m*3 16.3 C 0 km/h
699 01-06-2019 10:10:00 16.7 C 12.79 g/m*3 16.7 C 0 km/h
700 01-06-2019 10:15:00 17.1 C 12.81 g/m*3 17.1 C 0 km/h
Sensor: Nr:Datum:Temp:Abs-Feuchte:Windchill:Wind:
Aussen-T/F 701 01-06-2019 10:20:00 17.6 C 13.05 g/m*3 17.6 C 0 km/h
702 01-06-2019 10:25:00 18.1 C 13.29 g/m*3 18.1 C 0 km/h
703 01-06-2019 10:30:00 18.6 C 13.21 g/m*3 18.6 C 0 km/h
704 01-06-2019 10:35:00 18.9 C 13.12 g/m*3 18.9 C 0 km/h
705 01-06-2019 10:40:00 19.3 C 13.44 g/m*3 19.3 C 0 km/h
706 01-06-2019 10:45:00 19.5 C 13.43 g/m*3 19.5 C 0 km/h
707 01-06-2019 10:50:00 19.7 C 13.75 g/m*3 19.7 C 0 km/h
708 01-06-2019 10:55:00 19.8 C 13.32 g/m*3 19.8 C 4.8 km/h
709 01-06-2019 11:00:00 19.9 C 13.06 g/m*3 19.9 C 0 km/h
710 01-06-2019 11:05:00 20.1 C 13.04 g/m*3 20.1 C 1.6 km/h
711 01-06-2019 11:10:00 20.3 C 13.01 g/m*3 20.3 C 4.8 km/h
712 01-06-2019 11:15:00 20.5 C 13.17 g/m*3 20.5 C 4.8 km/h
713 01-06-2019 11:20:00 20.7 C 12.96 g/m*3 20.7 C 6.4 km/h
714 01-06-2019 11:25:00 20.8 C 12.86 g/m*3 20.8 C 6.4 km/h
715 01-06-2019 11:30:00 21.1 C 13.08 g/m*3 21.1 C 4.8 km/h
716 01-06-2019 11:35:00 21.2 C 13.34 g/m*3 21.2 C 3.2 km/h
717 01-06-2019 11:40:00 21.3 C 13.05 g/m*3 21.3 C 8.1 km/h
718 01-06-2019 11:45:00 21.6 C 13.28 g/m*3 21.6 C 8.1 km/h
719 01-06-2019 11:50:00 21.7 C 13.54 g/m*3 21.7 C 1.6 km/h
720 01-06-2019 11:55:00 21.8 C 13.05 g/m*3 21.8 C 9.7 km/h
721 01-06-2019 12:00:00 22.2 C 13.15 g/m*3 22.2 C 9.7 km/h
722 01-06-2019 12:05:00 22.4 C 13.31 g/m*3 22.4 C 8.1 km/h
723 01-06-2019 12:10:00 22.6 C 13.06 g/m*3 22.6 C 11.3 km/h
724 01-06-2019 12:15:00 22.8 C 13.61 g/m*3 22.8 C 12.9 km/h
725 01-06-2019 12:20:00 22.9 C 13.08 g/m*3 22.9 C 12.9 km/h
Sensor: Nr:Datum:Temp:Abs-Feuchte:Windchill:Wind:
Aussen-T/F 726 01-06-2019 12:25:00 23.1 C 13.23 g/m*3 23.1 C 9.7 km/h
727 01-06-2019 12:30:00 23.1 C 13.02 g/m*3 23.1 C 8.1 km/h
728 01-06-2019 12:35:00 23.2 C 13.1 g/m*3 23.2 C 9.7 km/h
729 01-06-2019 12:40:00 23.2 C 13.1 g/m*3 23.2 C 8.1 km/h
730 01-06-2019 12:45:00 23.4 C 12.83 g/m*3 23.4 C 12.9 km/h
731 01-06-2019 12:50:00 23.6 C 12.97 g/m*3 23.6 C 8.1 km/h
732 01-06-2019 12:55:00 23.7 C 12.83 g/m*3 23.7 C 9.7 km/h
733 01-06-2019 13:00:00 23.8 C 13.12 g/m*3 23.8 C 9.7 km/h
734 01-06-2019 13:05:00 24 C 12.84 g/m*3 24 C 8.1 km/h
735 01-06-2019 13:10:00 24.1 C 13.13 g/m*3 24.1 C 9.7 km/h
736 01-06-2019 13:15:00 24.1 C 13.13 g/m*3 24.1 C 9.7 km/h
737 01-06-2019 13:20:00 24.2 C 13.64 g/m*3 24.2 C 8.1 km/h
738 01-06-2019 13:25:00 24.3 C 13.28 g/m*3 24.3 C 11.3 km/h
739 01-06-2019 13:30:00 24.4 C 13.13 g/m*3 24.4 C 9.7 km/h
740 01-06-2019 13:35:00 24.4 C 13.13 g/m*3 24.4 C 6.4 km/h
741 01-06-2019 13:40:00 24.4 C 12.91 g/m*3 24.4 C 9.7 km/h
742 01-06-2019 13:45:00 24.6 C 13.28 g/m*3 24.6 C 8.1 km/h
743 01-06-2019 13:50:00 24.7 C 13.13 g/m*3 24.7 C 11.3 km/h
744 01-06-2019 13:55:00 24.8 C 12.97 g/m*3 24.8 C 9.7 km/h
745 01-06-2019 14:00:00 24.9 C 13.28 g/m*3 24.9 C 6.4 km/h
746 01-06-2019 14:05:00 25.1 C 13.89 g/m*3 25.1 C 9.7 km/h
747 01-06-2019 14:10:00 25.2 C 13.5 g/m*3 25.2 C 9.7 km/h
748 01-06-2019 14:15:00 25.2 C 12.8 g/m*3 25.2 C 9.7 km/h
749 01-06-2019 14:20:00 25.3 C 12.64 g/m*3 25.3 C 9.7 km/h
750 01-06-2019 14:25:00 25.3 C 12.88 g/m*3 25.3 C 8.1 km/h
Sensor: Nr:Datum:Temp:Abs-Feuchte:Windchill:Wind:
Aussen-T/F 751 01-06-2019 14:30:00 25.5 C 13.49 g/m*3 25.5 C 9.7 km/h
752 01-06-2019 14:35:00 25.6 C 13.09 g/m*3 25.6 C 11.3 km/h
753 01-06-2019 14:40:00 25.8 C 13.24 g/m*3 25.8 C 8.1 km/h
754 01-06-2019 14:45:00 25.9 C 12.83 g/m*3 25.9 C 6.4 km/h
755 01-06-2019 14:50:00 26.1 C 13.22 g/m*3 26.1 C 9.7 km/h
756 01-06-2019 14:55:00 26.3 C 13.37 g/m*3 26.3 C 9.7 km/h
757 01-06-2019 15:00:00 26.6 C 13.84 g/m*3 26.6 C 8.1 km/h
758 01-06-2019 15:05:00 26.8 C 13.24 g/m*3 26.8 C 9.7 km/h
759 01-06-2019 15:10:00 26.9 C 13.05 g/m*3 26.9 C 8.1 km/h
760 01-06-2019 15:15:00 27.3 C 13.34 g/m*3 27.3 C 9.7 km/h
761 01-06-2019 15:20:00 27.5 C 12.96 g/m*3 27.5 C 9.7 km/h
762 01-06-2019 15:25:00 27.7 C 12.84 g/m*3 27.7 C 12.9 km/h
763 01-06-2019 15:30:00 27.8 C 12.91 g/m*3 27.8 C 9.7 km/h
764 01-06-2019 15:35:00 27.9 C 13.25 g/m*3 27.9 C 11.3 km/h
765 01-06-2019 15:40:00 28.4 C 13.06 g/m*3 28.4 C 11.3 km/h
766 01-06-2019 15:45:00 28.6 C 14.33 g/m*3 28.6 C 6.4 km/h
767 01-06-2019 15:50:00 29.1 C 13 g/m*3 29.1 C 6.4 km/h
768 01-06-2019 15:55:00 29.4 C 14.09 g/m*3 29.4 C 6.4 km/h
769 01-06-2019 16:00:00 29.7 C 13.72 g/m*3 29.7 C 4.8 km/h
770 01-06-2019 16:05:00 29.8 C 13.8 g/m*3 29.8 C 9.7 km/h
771 01-06-2019 16:10:00 29.9 C 14.18 g/m*3 29.9 C 6.4 km/h
772 01-06-2019 16:15:00 30 C 13.04 g/m*3 30 C 6.4 km/h
773 01-06-2019 16:20:00 29.8 C 12.9 g/m*3 29.8 C 4.8 km/h
774 01-06-2019 16:25:00 29.9 C 13.27 g/m*3 29.9 C 9.7 km/h
775 01-06-2019 16:30:00 29.9 C 12.06 g/m*3 29.9 C 8.1 km/h
Sensor: Nr:Datum:Temp:Abs-Feuchte:Windchill:Wind:
Aussen-T/F 776 01-06-2019 16:35:00 29.9 C 12.97 g/m*3 29.9 C 11.3 km/h
777 01-06-2019 16:40:00 29.9 C 12.97 g/m*3 29.9 C 9.7 km/h
778 01-06-2019 16:45:00 30.1 C 14.02 g/m*3 30.1 C 3.2 km/h
779 01-06-2019 16:50:00 30.4 C 13.01 g/m*3 30.4 C 9.7 km/h
780 01-06-2019 16:55:00 30.4 C 12.7 g/m*3 30.4 C 11.3 km/h
781 01-06-2019 17:00:00 30.3 C 12.94 g/m*3 30.3 C 8.1 km/h
782 01-06-2019 17:05:00 30.2 C 12.57 g/m*3 30.2 C 8.1 km/h
783 01-06-2019 17:10:00 30.2 C 12.26 g/m*3 30.2 C 6.4 km/h
784 01-06-2019 17:15:00 30.3 C 12.94 g/m*3 30.3 C 3.2 km/h
785 01-06-2019 17:20:00 30.4 C 13.32 g/m*3 30.4 C 8.1 km/h
786 01-06-2019 17:25:00 30.4 C 12.39 g/m*3 30.4 C 6.4 km/h
787 01-06-2019 17:30:00 30.1 C 12.2 g/m*3 30.1 C 6.4 km/h
788 01-06-2019 17:35:00 29.8 C 13.5 g/m*3 29.8 C 9.7 km/h
789 01-06-2019 17:40:00 29.8 C 12.9 g/m*3 29.8 C 8.1 km/h
790 01-06-2019 17:45:00 29.8 C 13.2 g/m*3 29.8 C 4.8 km/h
791 01-06-2019 17:50:00 29.9 C 12.06 g/m*3 29.9 C 8.1 km/h
792 01-06-2019 17:55:00 29.9 C 13.87 g/m*3 29.9 C 6.4 km/h
793 01-06-2019 18:00:00 30.1 C 12.5 g/m*3 30.1 C 6.4 km/h
794 01-06-2019 18:05:00 30.2 C 13.18 g/m*3 30.2 C 1.6 km/h
795 01-06-2019 18:10:00 30.3 C 12.64 g/m*3 30.3 C 6.4 km/h
796 01-06-2019 18:15:00 30.3 C 12.33 g/m*3 30.3 C 8.1 km/h
797 01-06-2019 18:20:00 30.2 C 12.87 g/m*3 30.2 C 9.7 km/h
798 01-06-2019 18:25:00 30.2 C 12.26 g/m*3 30.2 C 6.4 km/h
799 01-06-2019 18:30:00 30.3 C 12.02 g/m*3 30.3 C 8.1 km/h
800 01-06-2019 18:35:00 30.3 C 12.94 g/m*3 30.3 C 4.8 km/h
Sensor: Nr:Datum:Temp:Abs-Feuchte:Windchill:Wind:
Aussen-T/F 801 01-06-2019 18:40:00 30.2 C 13.18 g/m*3 30.2 C 4.8 km/h
802 01-06-2019 18:45:00 30.2 C 15.02 g/m*3 30.2 C 3.2 km/h
803 01-06-2019 18:50:00 30.3 C 15.1 g/m*3 30.3 C 1.6 km/h
804 01-06-2019 18:55:00 30.2 C 15.63 g/m*3 30.2 C 1.6 km/h
805 01-06-2019 19:00:00 30.3 C 14.79 g/m*3 30.3 C 4.8 km/h
806 01-06-2019 19:05:00 30.3 C 15.72 g/m*3 30.3 C 3.2 km/h
807 01-06-2019 19:10:00 30.3 C 16.03 g/m*3 30.3 C 0 km/h
808 01-06-2019 19:15:00 30.1 C 15.24 g/m*3 30.1 C 4.8 km/h
809 01-06-2019 19:20:00 29.9 C 14.78 g/m*3 29.9 C 4.8 km/h
810 01-06-2019 19:25:00 29.8 C 15.9 g/m*3 29.8 C 1.6 km/h
811 01-06-2019 19:30:00 29.6 C 13.35 g/m*3 29.6 C 4.8 km/h
812 01-06-2019 19:35:00 29.5 C 12.99 g/m*3 29.5 C 4.8 km/h
813 01-06-2019 19:40:00 29.4 C 15.26 g/m*3 29.4 C 1.6 km/h
814 01-06-2019 19:45:00 29.3 C 15.77 g/m*3 29.3 C 1.6 km/h
815 01-06-2019 19:50:00 28.9 C 15.71 g/m*3 28.9 C 0 km/h
816 01-06-2019 19:55:00 28.7 C 15.82 g/m*3 28.7 C 0 km/h
817 01-06-2019 20:00:00 28.3 C 15.48 g/m*3 28.3 C 0 km/h
818 01-06-2019 20:05:00 28.1 C 15.31 g/m*3 28.1 C 0 km/h
819 01-06-2019 20:10:00 27.8 C 15.33 g/m*3 27.8 C 1.6 km/h
820 01-06-2019 20:15:00 27.4 C 15 g/m*3 27.4 C 0 km/h
821 01-06-2019 20:20:00 27.1 C 15.01 g/m*3 27.1 C 0 km/h
822 01-06-2019 20:25:00 26.8 C 15.02 g/m*3 26.8 C 0 km/h
823 01-06-2019 20:30:00 26.6 C 14.85 g/m*3 26.6 C 1.6 km/h
824 01-06-2019 20:35:00 26.3 C 14.61 g/m*3 26.3 C 0 km/h
825 01-06-2019 20:40:00 26 C 14.61 g/m*3 26 C 0 km/h
Sensor: Nr:Datum:Temp:Abs-Feuchte:Windchill:Wind:
Aussen-T/F 826 01-06-2019 20:45:00 25.6 C 14.52 g/m*3 25.6 C 0 km/h
827 01-06-2019 20:50:00 25.1 C 14.35 g/m*3 25.1 C 0 km/h
828 01-06-2019 20:55:00 24.8 C 14.34 g/m*3 24.8 C 0 km/h
829 01-06-2019 21:00:00 24.5 C 14.1 g/m*3 24.5 C 0 km/h
830 01-06-2019 21:05:00 24.2 C 14.08 g/m*3 24.2 C 0 km/h
831 01-06-2019 21:10:00 23.8 C 13.98 g/m*3 23.8 C 0 km/h
832 01-06-2019 21:15:00 23.4 C 13.88 g/m*3 23.4 C 0 km/h
833 01-06-2019 21:20:00 23.1 C 13.85 g/m*3 23.1 C 0 km/h
834 01-06-2019 21:25:00 22.8 C 13.82 g/m*3 22.8 C 0 km/h
835 01-06-2019 21:30:00 22.4 C 13.7 g/m*3 22.4 C 0 km/h
836 01-06-2019 21:35:00 22.2 C 13.74 g/m*3 22.2 C 0 km/h
837 01-06-2019 21:40:00 21.8 C 13.43 g/m*3 21.8 C 0 km/h
838 01-06-2019 21:45:00 21.6 C 13.47 g/m*3 21.6 C 0 km/h
839 01-06-2019 21:50:00 21.4 C 13.31 g/m*3 21.4 C 0 km/h
840 01-06-2019 21:55:00 21.2 C 13.34 g/m*3 21.2 C 0 km/h
841 01-06-2019 22:00:00 21 C 13.37 g/m*3 21 C 0 km/h
842 01-06-2019 22:05:00 20.8 C 13.22 g/m*3 20.8 C 0 km/h
843 01-06-2019 22:10:00 20.7 C 13.14 g/m*3 20.7 C 0 km/h
844 01-06-2019 22:15:00 20.5 C 13.17 g/m*3 20.5 C 0 km/h
845 01-06-2019 22:20:00 20.3 C 13.19 g/m*3 20.3 C 0 km/h
846 01-06-2019 22:25:00 20.2 C 13.29 g/m*3 20.2 C 0 km/h
847 01-06-2019 22:30:00 19.9 C 13.23 g/m*3 19.9 C 0 km/h
848 01-06-2019 22:35:00 19.8 C 13.15 g/m*3 19.8 C 0 km/h
849 01-06-2019 22:40:00 19.6 C 13.17 g/m*3 19.6 C 0 km/h
850 01-06-2019 22:45:00 19.3 C 12.94 g/m*3 19.3 C 0 km/h
Sensor: Nr:Datum:Temp:Abs-Feuchte:Windchill:Wind:
Aussen-T/F 851 01-06-2019 22:50:00 19.1 C 12.95 g/m*3 19.1 C 0 km/h
852 01-06-2019 22:55:00 18.9 C 12.96 g/m*3 18.9 C 0 km/h
853 01-06-2019 23:00:00 18.8 C 12.88 g/m*3 18.8 C 0 km/h
854 01-06-2019 23:05:00 18.7 C 12.97 g/m*3 18.7 C 0 km/h
855 01-06-2019 23:10:00 18.6 C 12.89 g/m*3 18.6 C 0 km/h
856 01-06-2019 23:15:00 18.5 C 12.97 g/m*3 18.5 C 0 km/h
857 01-06-2019 23:20:00 18.4 C 12.9 g/m*3 18.4 C 0 km/h
858 01-06-2019 23:25:00 18.3 C 12.82 g/m*3 18.3 C 0 km/h
859 01-06-2019 23:30:00 18.2 C 12.75 g/m*3 18.2 C 0 km/h
860 01-06-2019 23:35:00 18.1 C 12.82 g/m*3 18.1 C 0 km/h
861 01-06-2019 23:40:00 17.9 C 12.67 g/m*3 17.9 C 0 km/h
862 01-06-2019 23:45:00 17.8 C 12.6 g/m*3 17.8 C 0 km/h
863 01-06-2019 23:50:00 17.7 C 12.67 g/m*3 17.7 C 0 km/h
864 01-06-2019 23:55:00 17.5 C 12.52 g/m*3 17.5 C 0 km/h

Legende:
   Min
   Max


Maximal/Minimal-Werte vom 30.05.2019 - 01.06.2019

Sensor Min Max Avg
Temp
(Aussen-T/F)
9 °C
30-05-2019  05:25:00
30.4 °C
01-06-2019  16:50:00
18.28 °C
Abs-Feuchte
(Aussen-T/F)
8.11 g/m*3
30-05-2019  05:25:00
16.03 g/m*3
01-06-2019  19:10:00
11.5 g/m*3
Windchill
(Aussen-T/F)
9 C
30-05-2019  05:25:00
30.4 C
01-06-2019  16:50:00
18.26 C

Die Daten stammen von einer Davis Vantage Pro 2 Wetter-Station und werden unter Linux mit der Software wview2wettercgi und aufbereitet. Alle Angaben erfolgen ohne Gewähr für ihre Vollständigkeit oder Richtigkeit.
Kontakt: Rainer Krienke krienke@uni-koblenz.de . Meine Webseiten an der Uni Koblenz oder privat.
Version: $Revision: 0.78 $